Terminal Aerodrome Forecast
Issued by NWS

Home | Current Version | Previous Version | Text Only | Print | Product List | Glossary On
Versions: 1 2 3 4 5 6 7 8 9 10 11 12
844
FTUS43 KOAX 232322
TAFBFF
TAF
KBFF 232322Z 2400/2424 33018G28KT P6SM FEW100 SCT250
     FM240200 31010KT P6SM FEW250
     FM241500 32020G28KT P6SM SKC=

USA.gov is the U.S. government's official web portal to all federal, state and local government web resources and services.